HISTORICAL SENSOR DATA

Sensor Data Report

DB LIVE
CURRENT TIME--:--:--
DEVICE NETWORK Gateway Status
13 ESP · realtime ~1s · history 60s
Weather WS-MOD-01
ONLINE
Actuator ACT-MOD-01
OFFLINE
Mainboard L3 MB-L3-01
ONLINE
Mainboard L5 MB-L5-01
ONLINE
Remote AC AC-REMOTE-01
OFFLINE
PZEM L3-01 PWR-L3-01
OFFLINE
PZEM L3-02 PWR-L3-02
OFFLINE
PZEM L3-03 PWR-L3-03
OFFLINE
PZEM L3-04 PWR-L3-04
OFFLINE
PZEM L5-01 PWR-L5-01
ONLINE
PZEM L5-02 PWR-L5-02
OFFLINE
PZEM L5-03 PWR-L5-03
ONLINE
PZEM L5-04 PWR-L5-04
OFFLINE
REPORT FILTER

Periode & Sensor

DATABASE HISTORY
RESET
QUICK RANGE Hari ini 7 hari 30 hari
PERIODE31 Aug 2026sampai 06 Sep 2026
TOTAL DATA47,097sensor readings
MINIMUM-0.50sesuai filter
AVERAGE91.77sesuai filter
MAXIMUM32,564.20sesuai filter
REPORT RESULT

Data Sensor

31/08/2026 — 06/09/2026 EXPORT CSV
NOTANGGALWAKTUDEVICECHANNELSENSORVALUEUNIT
2301 06/09/2026 16:39:00 MB-L5-01Mainboard Lantai 5 L5-LUX-02 Illuminance / LUX 2 939.70 lux
2302 06/09/2026 16:39:00 MB-L5-01Mainboard Lantai 5 L5-ST-02 Surface Temperature 2 30.10 °C
2303 06/09/2026 16:39:00 MB-L5-01Mainboard Lantai 5 L5-LUX-01 Illuminance / LUX 1 223.40 lux
2304 06/09/2026 16:39:00 MB-L5-01Mainboard Lantai 5 L5-SHT-03-T SHT20 3 Temperature 32.00 °C
2305 06/09/2026 16:39:00 MB-L5-01Mainboard Lantai 5 L5-LUX-04 Illuminance / LUX 4 293.30 lux
2306 06/09/2026 16:39:00 MB-L5-01Mainboard Lantai 5 L5-LUX-06 Illuminance / LUX 6 468.30 lux
2307 06/09/2026 16:39:00 MB-L3-01Mainboard Lantai 3 L3-AI-03 Analog Input 3 3.12 V
2308 06/09/2026 16:39:00 WS-MOD-01Weather Station Module WS-TEMP Suhu Udara 26.20 °C
2309 06/09/2026 16:39:00 MB-L5-01Mainboard Lantai 5 L5-AI-06 Analog Input 6 3.05 V
2310 06/09/2026 16:39:00 MB-L5-01Mainboard Lantai 5 L5-AI-01 Analog Input 1 3.05 V
2311 06/09/2026 16:39:00 MB-L5-01Mainboard Lantai 5 L5-LUX-05 Illuminance / LUX 5 1,643.00 lux
2312 06/09/2026 16:39:00 MB-L5-01Mainboard Lantai 5 L5-BGT-02 Black Globe Temperature 2 29.70 °C
2313 06/09/2026 16:39:00 MB-L5-01Mainboard Lantai 5 L5-HFT-02 Heat Flow Temperature 2 30.20 °C
2314 06/09/2026 16:39:00 MB-L5-01Mainboard Lantai 5 L5-SHT-01-T SHT20 1 Temperature 32.20 °C
2315 06/09/2026 16:39:00 MB-L3-01Mainboard Lantai 3 L3-AI-02 Analog Input 2 3.12 V
2316 06/09/2026 16:39:00 WS-MOD-01Weather Station Module WS-RH Kelembapan Udara 55.30 %RH
2317 06/09/2026 16:39:00 MB-L5-01Mainboard Lantai 5 L5-SHT-03-RH SHT20 3 Humidity 38.70 %RH
2318 06/09/2026 16:39:00 MB-L3-01Mainboard Lantai 3 L3-SHT-03-RH SHT20 3 Humidity 40.70 %RH
2319 06/09/2026 16:39:00 MB-L5-01Mainboard Lantai 5 L5-SHT-01-RH SHT20 1 Humidity 38.70 %RH
2320 06/09/2026 16:39:00 MB-L3-01Mainboard Lantai 3 L3-SHT-03-T SHT20 3 Temperature 30.80 °C
2321 06/09/2026 16:39:00 MB-L5-01Mainboard Lantai 5 L5-AI-03 Analog Input 3 3.05 V
2322 06/09/2026 16:39:00 MB-L3-01Mainboard Lantai 3 L3-SHT-02-RH SHT20 2 Humidity 40.00 %RH
2323 06/09/2026 16:39:00 WS-MOD-01Weather Station Module WS-PRES Tekanan Udara 908.00 hPa
2324 06/09/2026 16:39:00 MB-L3-01Mainboard Lantai 3 L3-AI-01 Analog Input 1 3.12 V
2325 06/09/2026 16:39:00 WS-MOD-01Weather Station Module WS-DIR Arah Angin 175.10 °
2326 06/09/2026 16:39:00 MB-L5-01Mainboard Lantai 5 L5-ST-01 Surface Temperature 1 33.10 °C
2327 06/09/2026 16:39:00 MB-L3-01Mainboard Lantai 3 L3-LUX-05 Illuminance / LUX 5 794.60 lux
2328 06/09/2026 16:39:00 MB-L5-01Mainboard Lantai 5 L5-AI-05 Analog Input 5 3.05 V
2329 06/09/2026 16:39:00 MB-L5-01Mainboard Lantai 5 L5-SHT-02-T SHT20 2 Temperature 31.40 °C
2330 06/09/2026 16:39:00 MB-L5-01Mainboard Lantai 5 L5-BGT-01 Black Globe Temperature 1 29.80 °C
2331 06/09/2026 16:39:00 MB-L3-01Mainboard Lantai 3 L3-LUX-02 Illuminance / LUX 2 394.00 lux
2332 06/09/2026 16:39:00 MB-L5-01Mainboard Lantai 5 L5-HFT-01 Heat Flow Temperature 1 34.20 °C
2333 06/09/2026 16:39:00 MB-L3-01Mainboard Lantai 3 L3-AI-06 Analog Input 6 3.12 V
2334 06/09/2026 16:39:00 MB-L3-01Mainboard Lantai 3 L3-LUX-06 Illuminance / LUX 6 1,022.40 lux
2335 06/09/2026 16:39:00 MB-L3-01Mainboard Lantai 3 L3-SHT-02-T SHT20 2 Temperature 30.90 °C
2336 06/09/2026 16:38:00 MB-L5-01Mainboard Lantai 5 L5-LUX-03 Illuminance / LUX 3 464.20 lux
2337 06/09/2026 16:38:00 MB-L5-01Mainboard Lantai 5 L5-RAD-02 Radiation 2 3.00 W/m²
2338 06/09/2026 16:38:00 MB-L3-01Mainboard Lantai 3 L3-SHT-01-RH SHT20 1 Humidity 39.80 %RH
2339 06/09/2026 16:38:00 WS-MOD-01Weather Station Module WS-WIND Kecepatan Angin 8.09 m/s
2340 06/09/2026 16:38:00 MB-L5-01Mainboard Lantai 5 L5-AI-04 Analog Input 4 3.05 V
2341 06/09/2026 16:38:00 MB-L3-01Mainboard Lantai 3 L3-AI-04 Analog Input 4 3.12 V
2342 06/09/2026 16:38:00 MB-L5-01Mainboard Lantai 5 L5-LUX-02 Illuminance / LUX 2 980.60 lux
2343 06/09/2026 16:38:00 MB-L5-01Mainboard Lantai 5 L5-ST-02 Surface Temperature 2 30.30 °C
2344 06/09/2026 16:38:00 MB-L5-01Mainboard Lantai 5 L5-LUX-01 Illuminance / LUX 1 241.30 lux
2345 06/09/2026 16:38:00 MB-L5-01Mainboard Lantai 5 L5-SHT-03-T SHT20 3 Temperature 32.00 °C
2346 06/09/2026 16:38:00 MB-L5-01Mainboard Lantai 5 L5-LUX-04 Illuminance / LUX 4 311.60 lux
2347 06/09/2026 16:38:00 MB-L5-01Mainboard Lantai 5 L5-LUX-06 Illuminance / LUX 6 501.60 lux
2348 06/09/2026 16:38:00 MB-L3-01Mainboard Lantai 3 L3-AI-03 Analog Input 3 3.12 V
2349 06/09/2026 16:38:00 WS-MOD-01Weather Station Module WS-TEMP Suhu Udara 26.30 °C
2350 06/09/2026 16:38:00 MB-L5-01Mainboard Lantai 5 L5-AI-06 Analog Input 6 3.05 V
2351 06/09/2026 16:38:00 MB-L5-01Mainboard Lantai 5 L5-AI-01 Analog Input 1 3.05 V
2352 06/09/2026 16:38:00 MB-L5-01Mainboard Lantai 5 L5-LUX-05 Illuminance / LUX 5 1,744.30 lux
2353 06/09/2026 16:38:00 MB-L5-01Mainboard Lantai 5 L5-BGT-02 Black Globe Temperature 2 29.70 °C
2354 06/09/2026 16:38:00 MB-L5-01Mainboard Lantai 5 L5-HFT-02 Heat Flow Temperature 2 30.30 °C
2355 06/09/2026 16:38:00 MB-L5-01Mainboard Lantai 5 L5-SHT-01-T SHT20 1 Temperature 32.10 °C
2356 06/09/2026 16:38:00 MB-L3-01Mainboard Lantai 3 L3-AI-02 Analog Input 2 3.12 V
2357 06/09/2026 16:38:00 WS-MOD-01Weather Station Module WS-RH Kelembapan Udara 55.00 %RH
2358 06/09/2026 16:38:00 MB-L5-01Mainboard Lantai 5 L5-SHT-03-RH SHT20 3 Humidity 39.00 %RH
2359 06/09/2026 16:38:00 MB-L3-01Mainboard Lantai 3 L3-SHT-03-RH SHT20 3 Humidity 40.60 %RH
2360 06/09/2026 16:38:00 MB-L5-01Mainboard Lantai 5 L5-SHT-01-RH SHT20 1 Humidity 38.40 %RH
2361 06/09/2026 16:38:00 MB-L3-01Mainboard Lantai 3 L3-SHT-03-T SHT20 3 Temperature 30.60 °C
2362 06/09/2026 16:38:00 MB-L5-01Mainboard Lantai 5 L5-AI-03 Analog Input 3 3.05 V
2363 06/09/2026 16:38:00 MB-L3-01Mainboard Lantai 3 L3-SHT-02-RH SHT20 2 Humidity 39.90 %RH
2364 06/09/2026 16:38:00 WS-MOD-01Weather Station Module WS-PRES Tekanan Udara 908.00 hPa
2365 06/09/2026 16:38:00 MB-L3-01Mainboard Lantai 3 L3-AI-01 Analog Input 1 3.12 V
2366 06/09/2026 16:38:00 WS-MOD-01Weather Station Module WS-DIR Arah Angin 162.30 °
2367 06/09/2026 16:38:00 MB-L5-01Mainboard Lantai 5 L5-ST-01 Surface Temperature 1 33.20 °C
2368 06/09/2026 16:38:00 MB-L3-01Mainboard Lantai 3 L3-LUX-05 Illuminance / LUX 5 827.20 lux
2369 06/09/2026 16:38:00 MB-L5-01Mainboard Lantai 5 L5-AI-05 Analog Input 5 3.05 V
2370 06/09/2026 16:38:00 MB-L5-01Mainboard Lantai 5 L5-SHT-02-T SHT20 2 Temperature 31.20 °C
2371 06/09/2026 16:38:00 MB-L5-01Mainboard Lantai 5 L5-BGT-01 Black Globe Temperature 1 30.00 °C
2372 06/09/2026 16:38:00 MB-L3-01Mainboard Lantai 3 L3-LUX-02 Illuminance / LUX 2 408.20 lux
2373 06/09/2026 16:38:00 MB-L5-01Mainboard Lantai 5 L5-HFT-01 Heat Flow Temperature 1 34.50 °C
2374 06/09/2026 16:38:00 MB-L3-01Mainboard Lantai 3 L3-AI-06 Analog Input 6 3.12 V
2375 06/09/2026 16:38:00 MB-L3-01Mainboard Lantai 3 L3-LUX-06 Illuminance / LUX 6 1,051.50 lux
2376 06/09/2026 16:38:00 MB-L3-01Mainboard Lantai 3 L3-SHT-02-T SHT20 2 Temperature 31.00 °C
2377 06/09/2026 16:38:00 MB-L3-01Mainboard Lantai 3 L3-RAD-02 Radiation 2 2.00 W/m²
2378 06/09/2026 16:38:00 MB-L5-01Mainboard Lantai 5 L5-BGT-03 Black Globe Temperature 3 30.20 °C
2379 06/09/2026 16:38:00 MB-L3-01Mainboard Lantai 3 L3-RAD-01 Radiation 1 2.00 W/m²
2380 06/09/2026 16:38:00 MB-L5-01Mainboard Lantai 5 L5-RAD-01 Radiation 1 3.00 W/m²
2381 06/09/2026 16:38:00 MB-L5-01Mainboard Lantai 5 L5-AI-02 Analog Input 2 3.05 V
2382 06/09/2026 16:38:00 MB-L3-01Mainboard Lantai 3 L3-AI-05 Analog Input 5 3.12 V
2383 06/09/2026 16:38:00 MB-L3-01Mainboard Lantai 3 L3-SHT-01-T SHT20 1 Temperature 31.00 °C
2384 06/09/2026 16:38:00 MB-L3-01Mainboard Lantai 3 L3-LUX-04 Illuminance / LUX 4 178.40 lux
2385 06/09/2026 16:38:00 MB-L3-01Mainboard Lantai 3 L3-LUX-03 Illuminance / LUX 3 329.30 lux
2386 06/09/2026 16:38:00 MB-L5-01Mainboard Lantai 5 L5-SHT-02-RH SHT20 2 Humidity 39.80 %RH
2387 06/09/2026 16:38:00 MB-L3-01Mainboard Lantai 3 L3-LUX-01 Illuminance / LUX 1 292.70 lux
2388 06/09/2026 16:37:00 MB-L5-01Mainboard Lantai 5 L5-AI-06 Analog Input 6 3.05 V
2389 06/09/2026 16:37:00 MB-L5-01Mainboard Lantai 5 L5-AI-01 Analog Input 1 3.05 V
2390 06/09/2026 16:37:00 MB-L5-01Mainboard Lantai 5 L5-LUX-05 Illuminance / LUX 5 1,846.40 lux
2391 06/09/2026 16:37:00 MB-L5-01Mainboard Lantai 5 L5-BGT-02 Black Globe Temperature 2 29.80 °C
2392 06/09/2026 16:37:00 MB-L5-01Mainboard Lantai 5 L5-HFT-02 Heat Flow Temperature 2 30.40 °C
2393 06/09/2026 16:37:00 MB-L5-01Mainboard Lantai 5 L5-SHT-01-T SHT20 1 Temperature 31.90 °C
2394 06/09/2026 16:37:00 MB-L3-01Mainboard Lantai 3 L3-AI-02 Analog Input 2 3.12 V
2395 06/09/2026 16:37:00 WS-MOD-01Weather Station Module WS-RH Kelembapan Udara 55.10 %RH
2396 06/09/2026 16:37:00 MB-L5-01Mainboard Lantai 5 L5-SHT-03-RH SHT20 3 Humidity 39.60 %RH
2397 06/09/2026 16:37:00 MB-L3-01Mainboard Lantai 3 L3-SHT-03-RH SHT20 3 Humidity 40.50 %RH
2398 06/09/2026 16:37:00 MB-L5-01Mainboard Lantai 5 L5-SHT-01-RH SHT20 1 Humidity 38.50 %RH
2399 06/09/2026 16:37:00 MB-L3-01Mainboard Lantai 3 L3-SHT-03-T SHT20 3 Temperature 30.60 °C
2400 06/09/2026 16:37:00 MB-L5-01Mainboard Lantai 5 L5-AI-03 Analog Input 3 3.05 V
Menampilkan maksimal 100 data per halaman